sensor_id;sensor_type;location;lat;lon;timestamp;P1;durP1;ratioP1;P2;durP2;ratioP2
20593;SDS011;10455;48.732;10.266;2023-05-18T00:04:11;18.10;;;13.40;;
20593;SDS011;10455;48.732;10.266;2023-05-18T00:09:12;17.67;;;13.33;;
20593;SDS011;10455;48.732;10.266;2023-05-18T00:14:16;16.17;;;12.53;;
20593;SDS011;10455;48.732;10.266;2023-05-18T00:19:18;15.03;;;12.00;;
20593;SDS011;10455;48.732;10.266;2023-05-18T00:24:20;17.00;;;11.90;;
20593;SDS011;10455;48.732;10.266;2023-05-18T00:29:23;15.47;;;12.47;;
20593;SDS011;10455;48.732;10.266;2023-05-18T00:34:25;13.90;;;11.83;;
20593;SDS011;10455;48.732;10.266;2023-05-18T00:39:27;24.27;;;16.00;;
20593;SDS011;10455;48.732;10.266;2023-05-18T00:44:30;16.80;;;12.37;;
20593;SDS011;10455;48.732;10.266;2023-05-18T00:49:35;17.50;;;13.40;;
20593;SDS011;10455;48.732;10.266;2023-05-18T00:54:37;15.67;;;13.77;;
20593;SDS011;10455;48.732;10.266;2023-05-18T00:59:40;21.20;;;14.30;;
20593;SDS011;10455;48.732;10.266;2023-05-18T01:04:43;20.47;;;13.70;;
20593;SDS011;10455;48.732;10.266;2023-05-18T01:09:45;18.13;;;12.63;;
20593;SDS011;10455;48.732;10.266;2023-05-18T01:14:48;17.23;;;13.50;;
20593;SDS011;10455;48.732;10.266;2023-05-18T01:20:08;19.50;;;14.17;;
20593;SDS011;10455;48.732;10.266;2023-05-18T01:25:20;25.30;;;14.90;;
20593;SDS011;10455;48.732;10.266;2023-05-18T01:30:37;23.10;;;14.80;;
20593;SDS011;10455;48.732;10.266;2023-05-18T01:35:41;17.30;;;13.23;;
20593;SDS011;10455;48.732;10.266;2023-05-18T01:40:48;19.80;;;13.90;;
20593;SDS011;10455;48.732;10.266;2023-05-18T01:46:00;16.07;;;12.23;;
20593;SDS011;10455;48.732;10.266;2023-05-18T01:51:05;17.30;;;11.70;;
20593;SDS011;10455;48.732;10.266;2023-05-18T01:56:10;19.23;;;13.83;;
20593;SDS011;10455;48.732;10.266;2023-05-18T02:01:15;18.23;;;14.63;;
20593;SDS011;10455;48.732;10.266;2023-05-18T02:06:19;21.70;;;14.67;;
20593;SDS011;10455;48.732;10.266;2023-05-18T02:11:21;17.50;;;13.27;;
20593;SDS011;10455;48.732;10.266;2023-05-18T02:16:24;16.57;;;13.37;;
20593;SDS011;10455;48.732;10.266;2023-05-18T02:21:26;22.67;;;14.33;;
20593;SDS011;10455;48.732;10.266;2023-05-18T02:26:28;22.87;;;15.57;;
20593;SDS011;10455;48.732;10.266;2023-05-18T02:31:31;18.57;;;14.23;;
20593;SDS011;10455;48.732;10.266;2023-05-18T02:36:36;22.13;;;15.93;;
20593;SDS011;10455;48.732;10.266;2023-05-18T02:41:39;29.50;;;19.73;;
20593;SDS011;10455;48.732;10.266;2023-05-18T02:46:42;25.40;;;18.07;;
20593;SDS011;10455;48.732;10.266;2023-05-18T02:51:44;24.03;;;17.20;;
20593;SDS011;10455;48.732;10.266;2023-05-18T02:56:46;26.33;;;18.13;;
20593;SDS011;10455;48.732;10.266;2023-05-18T03:01:52;26.40;;;17.43;;
20593;SDS011;10455;48.732;10.266;2023-05-18T03:06:55;27.20;;;18.03;;
20593;SDS011;10455;48.732;10.266;2023-05-18T03:11:57;31.53;;;19.60;;
20593;SDS011;10455;48.732;10.266;2023-05-18T03:17:01;26.77;;;19.87;;
20593;SDS011;10455;48.732;10.266;2023-05-18T03:22:06;29.97;;;19.97;;
20593;SDS011;10455;48.732;10.266;2023-05-18T03:27:08;31.10;;;19.97;;
20593;SDS011;10455;48.732;10.266;2023-05-18T03:32:16;31.63;;;19.97;;
20593;SDS011;10455;48.732;10.266;2023-05-18T03:37:23;28.30;;;20.03;;
20593;SDS011;10455;48.732;10.266;2023-05-18T03:42:27;32.10;;;19.57;;
20593;SDS011;10455;48.732;10.266;2023-05-18T03:47:31;28.23;;;18.07;;
20593;SDS011;10455;48.732;10.266;2023-05-18T03:52:33;26.40;;;18.73;;
20593;SDS011;10455;48.732;10.266;2023-05-18T03:57:35;34.90;;;19.10;;
20593;SDS011;10455;48.732;10.266;2023-05-18T04:02:39;22.80;;;15.90;;
20593;SDS011;10455;48.732;10.266;2023-05-18T04:07:41;25.33;;;17.50;;
20593;SDS011;10455;48.732;10.266;2023-05-18T04:12:45;37.30;;;21.80;;
20593;SDS011;10455;48.732;10.266;2023-05-18T04:17:49;32.73;;;23.80;;
20593;SDS011;10455;48.732;10.266;2023-05-18T04:22:52;40.33;;;27.27;;
20593;SDS011;10455;48.732;10.266;2023-05-18T04:27:56;48.10;;;33.57;;
20593;SDS011;10455;48.732;10.266;2023-05-18T04:32:59;38.20;;;26.70;;
20593;SDS011;10455;48.732;10.266;2023-05-18T04:38:03;30.70;;;23.17;;
20593;SDS011;10455;48.732;10.266;2023-05-18T04:43:07;17.73;;;12.93;;
20593;SDS011;10455;48.732;10.266;2023-05-18T04:48:10;15.83;;;12.17;;
20593;SDS011;10455;48.732;10.266;2023-05-18T04:53:13;17.23;;;10.70;;
20593;SDS011;10455;48.732;10.266;2023-05-18T04:58:17;11.53;;;9.37;;
20593;SDS011;10455;48.732;10.266;2023-05-18T05:03:20;10.47;;;8.20;;
20593;SDS011;10455;48.732;10.266;2023-05-18T05:08:22;12.23;;;10.07;;
20593;SDS011;10455;48.732;10.266;2023-05-18T05:13:24;12.53;;;9.67;;
20593;SDS011;10455;48.732;10.266;2023-05-18T05:18:27;10.23;;;6.80;;
20593;SDS011;10455;48.732;10.266;2023-05-18T05:23:29;5.70;;;3.97;;
20593;SDS011;10455;48.732;10.266;2023-05-18T05:28:31;7.00;;;5.10;;
20593;SDS011;10455;48.732;10.266;2023-05-18T05:33:34;8.77;;;6.43;;
20593;SDS011;10455;48.732;10.266;2023-05-18T05:43:39;8.85;;;5.43;;
20593;SDS011;10455;48.732;10.266;2023-05-18T05:48:43;9.05;;;5.00;;
20593;SDS011;10455;48.732;10.266;2023-05-18T05:53:45;10.15;;;5.25;;
20593;SDS011;10455;48.732;10.266;2023-05-18T05:58:48;8.68;;;4.80;;
20593;SDS011;10455;48.732;10.266;2023-05-18T06:03:52;9.07;;;5.22;;
20593;SDS011;10455;48.732;10.266;2023-05-18T06:08:54;6.93;;;4.13;;
20593;SDS011;10455;48.732;10.266;2023-05-18T06:13:55;9.45;;;4.65;;
20593;SDS011;10455;48.732;10.266;2023-05-18T06:18:59;9.77;;;4.40;;
20593;SDS011;10455;48.732;10.266;2023-05-18T06:24:01;10.13;;;4.40;;
20593;SDS011;10455;48.732;10.266;2023-05-18T06:29:04;8.90;;;4.38;;
20593;SDS011;10455;48.732;10.266;2023-05-18T06:34:09;11.50;;;4.55;;
20593;SDS011;10455;48.732;10.266;2023-05-18T06:39:11;10.10;;;4.57;;
20593;SDS011;10455;48.732;10.266;2023-05-18T06:44:13;10.32;;;4.60;;
20593;SDS011;10455;48.732;10.266;2023-05-18T06:49:16;8.45;;;4.35;;
20593;SDS011;10455;48.732;10.266;2023-05-18T06:54:18;7.55;;;4.63;;
20593;SDS011;10455;48.732;10.266;2023-05-18T06:59:21;12.02;;;6.00;;
20593;SDS011;10455;48.732;10.266;2023-05-18T07:04:24;10.25;;;5.80;;
20593;SDS011;10455;48.732;10.266;2023-05-18T07:09:26;9.63;;;5.10;;
20593;SDS011;10455;48.732;10.266;2023-05-18T07:14:28;11.18;;;5.22;;
20593;SDS011;10455;48.732;10.266;2023-05-18T07:19:31;6.57;;;4.90;;
20593;SDS011;10455;48.732;10.266;2023-05-18T07:24:34;9.82;;;6.03;;
20593;SDS011;10455;48.732;10.266;2023-05-18T07:29:36;9.23;;;4.90;;
20593;SDS011;10455;48.732;10.266;2023-05-18T07:34:39;7.40;;;4.78;;
20593;SDS011;10455;48.732;10.266;2023-05-18T07:39:42;9.18;;;4.93;;
20593;SDS011;10455;48.732;10.266;2023-05-18T07:44:44;5.60;;;3.65;;
20593;SDS011;10455;48.732;10.266;2023-05-18T07:49:47;11.77;;;4.63;;
20593;SDS011;10455;48.732;10.266;2023-05-18T07:54:49;8.05;;;4.72;;
20593;SDS011;10455;48.732;10.266;2023-05-18T07:59:51;15.02;;;4.97;;
20593;SDS011;10455;48.732;10.266;2023-05-18T08:04:55;7.30;;;4.50;;
20593;SDS011;10455;48.732;10.266;2023-05-18T08:09:57;9.45;;;4.60;;
20593;SDS011;10455;48.732;10.266;2023-05-18T08:14:58;8.07;;;5.30;;
20593;SDS011;10455;48.732;10.266;2023-05-18T08:20:02;7.15;;;4.35;;
20593;SDS011;10455;48.732;10.266;2023-05-18T08:25:05;9.10;;;4.63;;
20593;SDS011;10455;48.732;10.266;2023-05-18T08:30:09;7.72;;;4.57;;
20593;SDS011;10455;48.732;10.266;2023-05-18T08:35:13;8.75;;;4.72;;
20593;SDS011;10455;48.732;10.266;2023-05-18T08:40:16;8.30;;;4.82;;
20593;SDS011;10455;48.732;10.266;2023-05-18T08:45:20;11.65;;;4.70;;
20593;SDS011;10455;48.732;10.266;2023-05-18T08:50:29;6.47;;;4.20;;
20593;SDS011;10455;48.732;10.266;2023-05-18T08:55:32;6.35;;;4.20;;
20593;SDS011;10455;48.732;10.266;2023-05-18T09:00:36;11.23;;;4.72;;
20593;SDS011;10455;48.732;10.266;2023-05-18T09:05:39;10.23;;;4.85;;
20593;SDS011;10455;48.732;10.266;2023-05-18T09:10:41;8.18;;;3.92;;
20593;SDS011;10455;48.732;10.266;2023-05-18T09:15:43;10.63;;;4.07;;
20593;SDS011;10455;48.732;10.266;2023-05-18T09:20:47;9.90;;;4.10;;
20593;SDS011;10455;48.732;10.266;2023-05-18T09:25:49;8.15;;;4.43;;
20593;SDS011;10455;48.732;10.266;2023-05-18T09:30:53;8.80;;;4.63;;
20593;SDS011;10455;48.732;10.266;2023-05-18T09:35:56;10.05;;;3.83;;
20593;SDS011;10455;48.732;10.266;2023-05-18T09:41:00;7.85;;;3.95;;
20593;SDS011;10455;48.732;10.266;2023-05-18T09:46:04;6.63;;;4.45;;
20593;SDS011;10455;48.732;10.266;2023-05-18T09:51:08;6.97;;;3.65;;
20593;SDS011;10455;48.732;10.266;2023-05-18T09:56:12;6.70;;;3.53;;
20593;SDS011;10455;48.732;10.266;2023-05-18T10:01:18;11.40;;;4.10;;
20593;SDS011;10455;48.732;10.266;2023-05-18T10:06:25;8.52;;;4.20;;
20593;SDS011;10455;48.732;10.266;2023-05-18T10:11:29;6.80;;;3.72;;
20593;SDS011;10455;48.732;10.266;2023-05-18T10:16:32;6.30;;;3.30;;
20593;SDS011;10455;48.732;10.266;2023-05-18T10:21:36;6.22;;;4.00;;
20593;SDS011;10455;48.732;10.266;2023-05-18T10:26:41;7.40;;;4.10;;
20593;SDS011;10455;48.732;10.266;2023-05-18T10:31:45;6.75;;;3.30;;
20593;SDS011;10455;48.732;10.266;2023-05-18T10:36:50;8.93;;;4.20;;
20593;SDS011;10455;48.732;10.266;2023-05-18T10:41:52;8.00;;;3.92;;
20593;SDS011;10455;48.732;10.266;2023-05-18T10:46:55;7.68;;;4.30;;
20593;SDS011;10455;48.732;10.266;2023-05-18T10:51:59;7.00;;;4.00;;
20593;SDS011;10455;48.732;10.266;2023-05-18T10:57:03;8.05;;;3.90;;
20593;SDS011;10455;48.732;10.266;2023-05-18T11:02:05;6.13;;;3.53;;
20593;SDS011;10455;48.732;10.266;2023-05-18T11:07:10;8.80;;;4.32;;
20593;SDS011;10455;48.732;10.266;2023-05-18T11:12:13;6.85;;;3.70;;
20593;SDS011;10455;48.732;10.266;2023-05-18T11:17:17;7.30;;;3.50;;
20593;SDS011;10455;48.732;10.266;2023-05-18T11:22:22;6.65;;;3.67;;
20593;SDS011;10455;48.732;10.266;2023-05-18T11:27:24;8.02;;;3.60;;
20593;SDS011;10455;48.732;10.266;2023-05-18T11:32:26;6.35;;;3.72;;
20593;SDS011;10455;48.732;10.266;2023-05-18T11:37:48;6.57;;;3.80;;
20593;SDS011;10455;48.732;10.266;2023-05-18T11:42:56;8.18;;;3.63;;
20593;SDS011;10455;48.732;10.266;2023-05-18T11:48:00;7.32;;;4.03;;
20593;SDS011;10455;48.732;10.266;2023-05-18T11:53:03;5.45;;;3.50;;
20593;SDS011;10455;48.732;10.266;2023-05-18T11:58:06;6.93;;;3.83;;
20593;SDS011;10455;48.732;10.266;2023-05-18T12:03:09;9.88;;;4.30;;
20593;SDS011;10455;48.732;10.266;2023-05-18T12:08:12;11.90;;;4.18;;
20593;SDS011;10455;48.732;10.266;2023-05-18T12:13:18;7.68;;;3.97;;
20593;SDS011;10455;48.732;10.266;2023-05-18T12:18:22;6.32;;;3.60;;
20593;SDS011;10455;48.732;10.266;2023-05-18T12:23:35;6.10;;;3.45;;
20593;SDS011;10455;48.732;10.266;2023-05-18T12:28:37;5.80;;;3.08;;
20593;SDS011;10455;48.732;10.266;2023-05-18T12:33:41;6.35;;;4.40;;
20593;SDS011;10455;48.732;10.266;2023-05-18T12:38:48;7.43;;;4.40;;
20593;SDS011;10455;48.732;10.266;2023-05-18T12:43:52;7.88;;;4.13;;
20593;SDS011;10455;48.732;10.266;2023-05-18T12:48:55;4.70;;;4.13;;
20593;SDS011;10455;48.732;10.266;2023-05-18T12:54:02;8.98;;;4.57;;
20593;SDS011;10455;48.732;10.266;2023-05-18T12:59:04;6.32;;;3.63;;
20593;SDS011;10455;48.732;10.266;2023-05-18T13:04:09;8.00;;;3.75;;
20593;SDS011;10455;48.732;10.266;2023-05-18T13:09:12;7.40;;;3.83;;
20593;SDS011;10455;48.732;10.266;2023-05-18T13:14:18;7.07;;;3.97;;
20593;SDS011;10455;48.732;10.266;2023-05-18T13:19:22;7.45;;;3.88;;
20593;SDS011;10455;48.732;10.266;2023-05-18T13:24:27;7.30;;;3.70;;
20593;SDS011;10455;48.732;10.266;2023-05-18T13:29:29;11.27;;;4.00;;
20593;SDS011;10455;48.732;10.266;2023-05-18T13:34:33;8.18;;;4.10;;
20593;SDS011;10455;48.732;10.266;2023-05-18T13:39:37;9.07;;;3.92;;
20593;SDS011;10455;48.732;10.266;2023-05-18T13:44:38;8.35;;;4.38;;
20593;SDS011;10455;48.732;10.266;2023-05-18T13:49:40;6.72;;;4.15;;
20593;SDS011;10455;48.732;10.266;2023-05-18T13:54:44;7.47;;;4.15;;
20593;SDS011;10455;48.732;10.266;2023-05-18T13:59:45;11.60;;;3.85;;
20593;SDS011;10455;48.732;10.266;2023-05-18T14:04:47;4.97;;;3.50;;
20593;SDS011;10455;48.732;10.266;2023-05-18T14:09:51;9.50;;;4.10;;
20593;SDS011;10455;48.732;10.266;2023-05-18T14:14:53;6.65;;;3.90;;
20593;SDS011;10455;48.732;10.266;2023-05-18T14:19:55;7.10;;;3.75;;
20593;SDS011;10455;48.732;10.266;2023-05-18T14:24:59;7.97;;;3.80;;
20593;SDS011;10455;48.732;10.266;2023-05-18T14:30:01;8.43;;;4.13;;
20593;SDS011;10455;48.732;10.266;2023-05-18T14:35:05;7.07;;;3.72;;
20593;SDS011;10455;48.732;10.266;2023-05-18T14:40:09;8.35;;;4.10;;
20593;SDS011;10455;48.732;10.266;2023-05-18T14:45:11;8.27;;;3.60;;
20593;SDS011;10455;48.732;10.266;2023-05-18T14:50:13;7.18;;;3.60;;
20593;SDS011;10455;48.732;10.266;2023-05-18T14:55:17;6.60;;;3.40;;
20593;SDS011;10455;48.732;10.266;2023-05-18T15:00:19;8.65;;;3.53;;
20593;SDS011;10455;48.732;10.266;2023-05-18T15:05:21;7.78;;;3.70;;
20593;SDS011;10455;48.732;10.266;2023-05-18T15:10:24;5.35;;;3.40;;
20593;SDS011;10455;48.732;10.266;2023-05-18T15:15:26;5.22;;;3.72;;
20593;SDS011;10455;48.732;10.266;2023-05-18T15:20:28;9.27;;;4.07;;
20593;SDS011;10455;48.732;10.266;2023-05-18T15:25:31;8.10;;;4.00;;
20593;SDS011;10455;48.732;10.266;2023-05-18T15:30:33;6.28;;;3.70;;
20593;SDS011;10455;48.732;10.266;2023-05-18T15:35:35;9.38;;;3.85;;
20593;SDS011;10455;48.732;10.266;2023-05-18T15:40:39;5.35;;;3.80;;
20593;SDS011;10455;48.732;10.266;2023-05-18T15:45:45;6.80;;;3.75;;
20593;SDS011;10455;48.732;10.266;2023-05-18T15:50:47;7.13;;;4.03;;
20593;SDS011;10455;48.732;10.266;2023-05-18T15:55:50;6.22;;;3.58;;
20593;SDS011;10455;48.732;10.266;2023-05-18T16:00:54;8.75;;;3.65;;
20593;SDS011;10455;48.732;10.266;2023-05-18T16:05:56;7.15;;;3.70;;
20593;SDS011;10455;48.732;10.266;2023-05-18T16:10:59;6.10;;;3.80;;
20593;SDS011;10455;48.732;10.266;2023-05-18T16:16:02;5.32;;;3.72;;
20593;SDS011;10455;48.732;10.266;2023-05-18T16:21:05;8.32;;;4.15;;
20593;SDS011;10455;48.732;10.266;2023-05-18T16:26:09;8.52;;;3.70;;
20593;SDS011;10455;48.732;10.266;2023-05-18T16:31:11;9.00;;;4.00;;
20593;SDS011;10455;48.732;10.266;2023-05-18T16:36:13;6.43;;;3.75;;
20593;SDS011;10455;48.732;10.266;2023-05-18T16:41:17;5.05;;;3.92;;
20593;SDS011;10455;48.732;10.266;2023-05-18T16:46:19;7.00;;;4.13;;
20593;SDS011;10455;48.732;10.266;2023-05-18T16:51:21;7.80;;;4.32;;
20593;SDS011;10455;48.732;10.266;2023-05-18T16:56:25;6.63;;;4.10;;
20593;SDS011;10455;48.732;10.266;2023-05-18T17:01:28;6.68;;;4.75;;
20593;SDS011;10455;48.732;10.266;2023-05-18T17:06:31;8.65;;;4.43;;
20593;SDS011;10455;48.732;10.266;2023-05-18T17:11:34;8.00;;;4.63;;
20593;SDS011;10455;48.732;10.266;2023-05-18T17:16:36;6.35;;;4.20;;
20593;SDS011;10455;48.732;10.266;2023-05-18T17:21:40;7.63;;;4.18;;
20593;SDS011;10455;48.732;10.266;2023-05-18T17:26:43;9.40;;;4.40;;
20593;SDS011;10455;48.732;10.266;2023-05-18T17:31:45;9.02;;;4.45;;
20593;SDS011;10455;48.732;10.266;2023-05-18T17:36:47;7.60;;;4.03;;
20593;SDS011;10455;48.732;10.266;2023-05-18T17:41:53;9.20;;;4.82;;
20593;SDS011;10455;48.732;10.266;2023-05-18T17:46:55;8.13;;;4.75;;
20593;SDS011;10455;48.732;10.266;2023-05-18T17:51:57;6.75;;;4.53;;
20593;SDS011;10455;48.732;10.266;2023-05-18T17:57:00;13.75;;;6.43;;
20593;SDS011;10455;48.732;10.266;2023-05-18T18:02:03;12.55;;;5.82;;
20593;SDS011;10455;48.732;10.266;2023-05-18T18:07:05;8.75;;;4.68;;
20593;SDS011;10455;48.732;10.266;2023-05-18T18:12:08;9.95;;;5.45;;
20593;SDS011;10455;48.732;10.266;2023-05-18T18:17:10;8.75;;;5.40;;
20593;SDS011;10455;48.732;10.266;2023-05-18T18:22:12;6.03;;;4.20;;
20593;SDS011;10455;48.732;10.266;2023-05-18T18:27:15;7.25;;;4.20;;
20593;SDS011;10455;48.732;10.266;2023-05-18T18:32:18;8.70;;;5.47;;
20593;SDS011;10455;48.732;10.266;2023-05-18T18:37:20;11.13;;;8.48;;
20593;SDS011;10455;48.732;10.266;2023-05-18T18:42:23;9.30;;;8.10;;
20593;SDS011;10455;48.732;10.266;2023-05-18T18:47:25;13.18;;;10.05;;
20593;SDS011;10455;48.732;10.266;2023-05-18T18:52:27;17.40;;;11.52;;
20593;SDS011;10455;48.732;10.266;2023-05-18T18:57:30;11.93;;;9.87;;
20593;SDS011;10455;48.732;10.266;2023-05-18T19:02:33;15.83;;;7.63;;
20593;SDS011;10455;48.732;10.266;2023-05-18T19:07:35;30.33;;;17.65;;
20593;SDS011;10455;48.732;10.266;2023-05-18T19:12:38;11.18;;;7.93;;
20593;SDS011;10455;48.732;10.266;2023-05-18T19:17:42;11.30;;;7.60;;
20593;SDS011;10455;48.732;10.266;2023-05-18T19:22:45;11.70;;;7.97;;
20593;SDS011;10455;48.732;10.266;2023-05-18T19:27:49;10.13;;;7.40;;
20593;SDS011;10455;48.732;10.266;2023-05-18T19:32:51;10.23;;;6.87;;
20593;SDS011;10455;48.732;10.266;2023-05-18T19:37:54;10.03;;;7.10;;
20593;SDS011;10455;48.732;10.266;2023-05-18T19:42:57;11.93;;;7.30;;
20593;SDS011;10455;48.732;10.266;2023-05-18T19:48:00;9.90;;;7.80;;
20593;SDS011;10455;48.732;10.266;2023-05-18T19:53:02;11.67;;;9.03;;
20593;SDS011;10455;48.732;10.266;2023-05-18T19:58:06;12.07;;;8.07;;
20593;SDS011;10455;48.732;10.266;2023-05-18T20:03:08;12.77;;;8.20;;
20593;SDS011;10455;48.732;10.266;2023-05-18T20:08:10;13.53;;;8.00;;
20593;SDS011;10455;48.732;10.266;2023-05-18T20:13:13;8.80;;;7.20;;
20593;SDS011;10455;48.732;10.266;2023-05-18T20:18:15;12.37;;;10.00;;
20593;SDS011;10455;48.732;10.266;2023-05-18T20:23:17;12.87;;;11.47;;
20593;SDS011;10455;48.732;10.266;2023-05-18T20:28:21;12.73;;;9.17;;
20593;SDS011;10455;48.732;10.266;2023-05-18T20:33:25;12.60;;;8.97;;
20593;SDS011;10455;48.732;10.266;2023-05-18T20:38:29;11.83;;;9.70;;
20593;SDS011;10455;48.732;10.266;2023-05-18T20:43:33;11.70;;;8.50;;
20593;SDS011;10455;48.732;10.266;2023-05-18T20:48:36;12.10;;;9.90;;
20593;SDS011;10455;48.732;10.266;2023-05-18T20:53:38;9.63;;;7.83;;
20593;SDS011;10455;48.732;10.266;2023-05-18T20:58:41;12.63;;;8.43;;
20593;SDS011;10455;48.732;10.266;2023-05-18T21:03:47;13.67;;;8.50;;
20593;SDS011;10455;48.732;10.266;2023-05-18T21:08:49;10.03;;;8.23;;
20593;SDS011;10455;48.732;10.266;2023-05-18T21:13:53;9.07;;;8.17;;
20593;SDS011;10455;48.732;10.266;2023-05-18T21:18:55;10.87;;;8.47;;
20593;SDS011;10455;48.732;10.266;2023-05-18T21:23:57;12.73;;;8.60;;
20593;SDS011;10455;48.732;10.266;2023-05-18T21:29:01;9.00;;;8.07;;
20593;SDS011;10455;48.732;10.266;2023-05-18T21:34:03;10.27;;;7.30;;
20593;SDS011;10455;48.732;10.266;2023-05-18T21:39:05;8.00;;;7.20;;
20593;SDS011;10455;48.732;10.266;2023-05-18T21:44:09;9.70;;;7.67;;
20593;SDS011;10455;48.732;10.266;2023-05-18T21:49:11;10.37;;;7.97;;
20593;SDS011;10455;48.732;10.266;2023-05-18T21:54:13;12.07;;;7.20;;
20593;SDS011;10455;48.732;10.266;2023-05-18T21:59:16;10.97;;;6.97;;
20593;SDS011;10455;48.732;10.266;2023-05-18T22:04:18;10.20;;;8.07;;
20593;SDS011;10455;48.732;10.266;2023-05-18T22:09:20;11.83;;;7.80;;
20593;SDS011;10455;48.732;10.266;2023-05-18T22:14:23;8.60;;;6.27;;
20593;SDS011;10455;48.732;10.266;2023-05-18T22:19:25;7.73;;;5.80;;
20593;SDS011;10455;48.732;10.266;2023-05-18T22:24:27;10.93;;;6.63;;
20593;SDS011;10455;48.732;10.266;2023-05-18T22:29:30;8.17;;;6.57;;
20593;SDS011;10455;48.732;10.266;2023-05-18T22:34:32;9.27;;;6.37;;
20593;SDS011;10455;48.732;10.266;2023-05-18T22:39:34;9.17;;;6.57;;
20593;SDS011;10455;48.732;10.266;2023-05-18T22:44:37;8.57;;;6.13;;
20593;SDS011;10455;48.732;10.266;2023-05-18T22:49:39;8.37;;;6.60;;
20593;SDS011;10455;48.732;10.266;2023-05-18T22:54:41;10.70;;;6.80;;
20593;SDS011;10455;48.732;10.266;2023-05-18T22:59:44;8.43;;;7.47;;
20593;SDS011;10455;48.732;10.266;2023-05-18T23:04:46;9.93;;;6.47;;
20593;SDS011;10455;48.732;10.266;2023-05-18T23:09:48;9.70;;;6.60;;
20593;SDS011;10455;48.732;10.266;2023-05-18T23:14:52;8.73;;;7.27;;
20593;SDS011;10455;48.732;10.266;2023-05-18T23:19:55;9.10;;;7.07;;
20593;SDS011;10455;48.732;10.266;2023-05-18T23:24:57;10.20;;;7.00;;
20593;SDS011;10455;48.732;10.266;2023-05-18T23:30:00;7.77;;;7.07;;
20593;SDS011;10455;48.732;10.266;2023-05-18T23:35:03;10.07;;;7.53;;
20593;SDS011;10455;48.732;10.266;2023-05-18T23:40:06;10.43;;;7.40;;
20593;SDS011;10455;48.732;10.266;2023-05-18T23:45:13;10.63;;;7.73;;
20593;SDS011;10455;48.732;10.266;2023-05-18T23:50:16;7.70;;;7.00;;
20593;SDS011;10455;48.732;10.266;2023-05-18T23:55:20;11.77;;;7.20;;
